createdAt,value
2022-09-20T00:00:48.591Z,101645.84
2022-09-20T00:03:16.915Z,101645.53
2022-09-20T00:05:45.897Z,101661.75
2022-09-20T00:08:17.393Z,101657.91
2022-09-20T00:10:44.053Z,101654.41
2022-09-20T00:13:13.632Z,101660.13
2022-09-20T00:15:45.803Z,101663.75
2022-09-20T00:18:13.038Z,101660.97
2022-09-20T00:20:47.748Z,101663.03
2022-09-20T00:23:16.582Z,101663.81
2022-09-20T00:25:43.604Z,101653.19
2022-09-20T00:28:11.383Z,101670.44
2022-09-20T00:30:39.031Z,101668.75
2022-09-20T00:33:06.007Z,101667.19
2022-09-20T00:35:33.207Z,101664.03
2022-09-20T00:37:59.841Z,101671.78
2022-09-20T00:40:29.148Z,101674.44
2022-09-20T00:42:55.952Z,101677.09
2022-09-20T00:45:28.468Z,101680.00
2022-09-20T00:48:12.403Z,101676.13
2022-09-20T00:50:53.378Z,101684.81
2022-09-20T00:53:26.394Z,101668.38
2022-09-20T00:56:01.563Z,101670.69
2022-09-20T00:58:32.256Z,101663.25
2022-09-20T01:00:59.893Z,101661.41
2022-09-20T01:03:31.502Z,101667.44
2022-09-20T01:06:02.036Z,101659.59
2022-09-20T01:08:29.029Z,101655.84
2022-09-20T01:10:55.824Z,101661.63
2022-09-20T01:13:22.644Z,101670.09
2022-09-20T01:15:50.572Z,101669.53
2022-09-20T01:18:20.216Z,101656.03
2022-09-20T01:20:48.511Z,101666.78
2022-09-20T01:23:17.705Z,101675.34
2022-09-20T01:26:03.158Z,101673.06
2022-09-20T01:28:30.329Z,101668.47
2022-09-20T01:31:15.268Z,101670.88
2022-09-20T01:34:00.945Z,101667.25
2022-09-20T01:36:48.515Z,101674.50
2022-09-20T01:39:40.483Z,101672.81
2022-09-20T01:42:10.959Z,101671.28
2022-09-20T01:44:55.665Z,101673.78
2022-09-20T01:47:34.155Z,101671.28
2022-09-20T01:50:06.628Z,101668.25
2022-09-20T01:52:42.313Z,101666.81
2022-09-20T01:55:46.404Z,101670.25
2022-09-20T01:58:44.106Z,101666.63
2022-09-20T02:01:41.319Z,101664.00
2022-09-20T02:04:26.662Z,101670.75
2022-09-20T02:07:17.350Z,101672.59
2022-09-20T02:10:05.429Z,101675.50
2022-09-20T02:12:45.591Z,101680.94
2022-09-20T02:15:46.201Z,101679.72
2022-09-20T02:18:46.978Z,101684.31
2022-09-20T02:21:38.047Z,101682.97
2022-09-20T02:24:16.666Z,101681.88
2022-09-20T02:27:14.172Z,101679.72
2022-09-20T02:30:05.676Z,101676.09
2022-09-20T02:32:51.897Z,101676.34
2022-09-20T02:36:00.036Z,101678.03
2022-09-20T02:39:02.177Z,101679.97
2022-09-20T02:41:40.746Z,101684.31
2022-09-20T02:44:30.019Z,101675.53
2022-09-20T02:47:32.811Z,101685.75
2022-09-20T02:50:02.033Z,101682.72
2022-09-20T02:52:46.640Z,101681.28
2022-09-20T02:55:41.326Z,101681.25
2022-09-20T02:58:26.990Z,101680.19
2022-09-20T03:01:24.412Z,101673.66
2022-09-20T03:04:14.640Z,101679.78
2022-09-20T03:06:59.021Z,101670.25
2022-09-20T03:09:51.765Z,101683.50
2022-09-20T03:12:44.931Z,101683.28
2022-09-20T03:15:29.843Z,101683.41
2022-09-20T03:18:52.204Z,101690.88
2022-09-20T03:21:27.870Z,101685.56
2022-09-20T03:24:10.805Z,101684.34
2022-09-20T03:27:05.895Z,101688.16
2022-09-20T03:29:59.527Z,101685.75
2022-09-20T03:32:52.714Z,101684.50
2022-09-20T03:35:38.012Z,101679.69
2022-09-20T03:38:10.282Z,101690.69
2022-09-20T03:40:52.316Z,101687.31
2022-09-20T03:43:55.747Z,101693.69
2022-09-20T03:46:29.730Z,101697.41
2022-09-20T03:49:33.364Z,101694.03
2022-09-20T03:52:20.645Z,101696.28
2022-09-20T03:55:08.669Z,101694.28
2022-09-20T03:57:39.102Z,101696.53
2022-09-20T04:00:14.985Z,101702.81
2022-09-20T04:02:41.727Z,101709.03
2022-09-20T04:05:18.362Z,101713.59
2022-09-20T04:08:19.965Z,101707.81
2022-09-20T04:11:08.283Z,101704.63
2022-09-20T04:13:40.992Z,101705.06
2022-09-20T04:16:34.815Z,101703.88
2022-09-20T04:19:18.494Z,101705.56
2022-09-20T04:21:57.731Z,101701.88
2022-09-20T04:24:30.563Z,101706.34
2022-09-20T04:27:03.857Z,101700.38
2022-09-20T04:29:53.150Z,101706.53
2022-09-20T04:32:28.859Z,101699.59
2022-09-20T04:35:48.120Z,101714.19
2022-09-20T04:38:19.508Z,101712.59
2022-09-20T04:41:12.078Z,101717.25
2022-09-20T04:44:17.507Z,101717.25
2022-09-20T04:47:21.673Z,101727.97
2022-09-20T04:50:16.272Z,101719.91
2022-09-20T04:53:21.758Z,101725.44
2022-09-20T04:56:02.026Z,101723.91
2022-09-20T04:58:47.271Z,101729.22
2022-09-20T05:01:19.845Z,101729.22
2022-09-20T05:04:23.974Z,101733.53
2022-09-20T05:07:11.988Z,101731.56
2022-09-20T05:10:13.707Z,101737.91
2022-09-20T05:13:05.394Z,101744.22
2022-09-20T05:16:04.646Z,101745.94
2022-09-20T05:19:02.315Z,101742.53
2022-09-20T05:21:47.923Z,101749.34
2022-09-20T05:24:33.013Z,101745.63
2022-09-20T05:27:34.001Z,101760.78
2022-09-20T05:30:26.766Z,101762.47
2022-09-20T05:33:20.618Z,101768.50
2022-09-20T05:36:34.535Z,101766.59
2022-09-20T05:39:34.335Z,101774.28
2022-09-20T05:42:09.954Z,101765.81
2022-09-20T05:45:00.663Z,101780.44
2022-09-20T05:47:41.044Z,101778.94
2022-09-20T05:50:49.595Z,101779.13
2022-09-20T05:53:34.913Z,101771.78
2022-09-20T05:56:46.907Z,101775.31
2022-09-20T05:59:28.839Z,101770.94
2022-09-20T06:02:10.739Z,101788.56
2022-09-20T06:04:52.390Z,101769.16
2022-09-20T06:07:39.455Z,101762.72
2022-09-20T06:10:24.769Z,101771.91
2022-09-20T06:13:22.242Z,101779.84
2022-09-20T06:15:59.285Z,101760.69
2022-09-20T06:18:40.648Z,101782.50
2022-09-20T06:21:36.079Z,101789.28
2022-09-20T06:24:19.933Z,101791.28
2022-09-20T06:26:49.647Z,101789.88
2022-09-20T06:29:20.152Z,101796.63
2022-09-20T06:31:46.858Z,101790.19
2022-09-20T06:34:15.674Z,101797.34
2022-09-20T06:37:13.249Z,101801.56
2022-09-20T06:40:02.451Z,101797.97
2022-09-20T06:42:29.766Z,101799.53
2022-09-20T06:44:56.590Z,101799.53
2022-09-20T06:47:23.422Z,101800.38
2022-09-20T06:49:50.547Z,101799.22
2022-09-20T06:52:19.131Z,101805.75
2022-09-20T06:54:48.338Z,101799.50
2022-09-20T06:57:18.406Z,101805.41
2022-09-20T06:59:45.814Z,101809.25
2022-09-20T07:02:12.474Z,101808.34
2022-09-20T07:04:40.149Z,101810.09
2022-09-20T07:07:09.768Z,101810.34
2022-09-20T07:09:36.591Z,101810.38
2022-09-20T07:12:03.605Z,101808.84
2022-09-20T07:14:30.238Z,101806.94
2022-09-20T07:16:56.901Z,101818.19
2022-09-20T07:19:23.559Z,101802.31
2022-09-20T07:21:50.166Z,101804.00
2022-09-20T07:24:16.881Z,101799.75
2022-09-20T07:26:57.549Z,101801.47
2022-09-20T07:29:24.514Z,101799.94
2022-09-20T07:31:51.366Z,101801.72
2022-09-20T07:34:20.842Z,101781.72
2022-09-20T07:36:48.413Z,101780.00
2022-09-20T07:39:16.569Z,101771.16
2022-09-20T07:41:46.886Z,101776.38
2022-09-20T07:44:24.475Z,101766.03
2022-09-20T07:46:52.817Z,101768.22
2022-09-20T07:49:20.219Z,101771.50
2022-09-20T07:51:46.948Z,101771.78
2022-09-20T07:54:14.086Z,101783.03
2022-09-20T07:56:41.327Z,101772.78
2022-09-20T07:59:08.190Z,101782.91
2022-09-20T08:01:35.133Z,101776.81
2022-09-20T08:04:02.160Z,101785.81
2022-09-20T08:06:28.850Z,101789.91
2022-09-20T08:08:55.741Z,101791.75
2022-09-20T08:11:29.628Z,101791.88
2022-09-20T08:14:08.356Z,101794.72
2022-09-20T08:16:45.211Z,101786.41
2022-09-20T08:19:17.756Z,101806.50
2022-09-20T08:21:44.896Z,101804.38
2022-09-20T08:24:12.229Z,101817.28
2022-09-20T08:26:39.275Z,101808.53
2022-09-20T08:29:06.673Z,101802.06
2022-09-20T08:31:36.855Z,101809.88
2022-09-20T08:34:06.908Z,101809.56
2022-09-20T08:36:36.901Z,101816.63
2022-09-20T08:42:02.646Z,101817.81
2022-09-20T08:44:36.779Z,101820.47
2022-09-20T08:47:25.272Z,101815.97
2022-09-20T08:49:57.784Z,101815.38
2022-09-20T08:52:37.008Z,101816.25
2022-09-20T08:55:23.014Z,101821.31
2022-09-20T08:57:55.624Z,101807.81
2022-09-20T09:00:26.149Z,101816.94
2022-09-20T09:02:56.476Z,101821.31
2022-09-20T09:05:29.054Z,101811.28
2022-09-20T09:07:55.758Z,101813.38
2022-09-20T09:10:22.675Z,101814.59
2022-09-20T09:12:50.754Z,101817.47
2022-09-20T09:15:32.824Z,101811.81
2022-09-20T09:17:59.788Z,101814.09
2022-09-20T09:20:26.856Z,101813.88
2022-09-20T09:23:02.776Z,101816.09
2022-09-20T09:25:38.039Z,101808.50
2022-09-20T09:28:14.233Z,101806.75
2022-09-20T09:30:44.138Z,101792.34
2022-09-20T09:33:24.189Z,101819.53
2022-09-20T09:36:10.765Z,101813.84
2022-09-20T09:38:40.265Z,101822.31
2022-09-20T09:41:29.917Z,101822.19
2022-09-20T09:44:10.234Z,101820.66
2022-09-20T09:46:42.195Z,101811.97
2022-09-20T09:49:21.050Z,101826.28
2022-09-20T09:52:01.820Z,101813.03
2022-09-20T09:54:36.507Z,101808.53
2022-09-20T09:57:22.234Z,101807.00
2022-09-20T09:59:58.024Z,101812.56
2022-09-20T10:02:58.654Z,101818.91
2022-09-20T10:05:33.495Z,101806.41
2022-09-20T10:08:18.437Z,101816.94
2022-09-20T10:11:07.292Z,101808.81
2022-09-20T10:13:40.434Z,101813.53
2022-09-20T10:16:29.373Z,101811.13
2022-09-20T10:19:37.249Z,101808.06
2022-09-20T10:23:24.152Z,101803.06
2022-09-20T10:25:50.837Z,101810.84
2022-09-20T10:28:48.484Z,101816.25
2022-09-20T10:31:39.354Z,101806.00
2022-09-20T10:34:36.807Z,101807.66
2022-09-20T10:37:11.951Z,101802.81
2022-09-20T10:39:41.321Z,101805.75
2022-09-20T10:42:37.039Z,101804.72
2022-09-20T10:46:08.334Z,101797.56
2022-09-20T10:48:52.485Z,101807.41
2022-09-20T10:51:25.891Z,101796.19
2022-09-20T10:54:10.277Z,101798.06
2022-09-20T10:56:40.629Z,101794.03
2022-09-20T10:59:42.489Z,101801.03
2022-09-20T11:02:22.009Z,101796.78
2022-09-20T11:04:54.571Z,101806.03
2022-09-20T11:07:48.840Z,101800.56
2022-09-20T11:10:36.199Z,101798.66
2022-09-20T11:13:11.017Z,101796.94
2022-09-20T11:15:51.230Z,101794.38
2022-09-20T11:18:26.537Z,101807.75
2022-09-20T11:21:01.195Z,101801.09
2022-09-20T11:23:38.070Z,101801.97
2022-09-20T11:26:13.207Z,101796.13
2022-09-20T11:28:55.217Z,101794.53
2022-09-20T11:31:36.392Z,101790.13
2022-09-20T11:34:21.243Z,101791.16
2022-09-20T11:36:58.934Z,101789.16
2022-09-20T11:39:42.604Z,101791.22
2022-09-20T11:42:16.494Z,101802.28
2022-09-20T11:44:43.316Z,101798.50
2022-09-20T11:47:53.260Z,101799.00
2022-09-20T11:50:45.387Z,101801.16
2022-09-20T11:53:39.809Z,101818.16
2022-09-20T11:56:28.519Z,101802.41
2022-09-20T11:58:59.823Z,101804.88
2022-09-20T12:01:32.078Z,101801.63
2022-09-20T12:04:36.420Z,101806.56
2022-09-20T12:07:18.652Z,101796.16
2022-09-20T12:09:54.426Z,101801.63
2022-09-20T12:12:36.539Z,101796.41
2022-09-20T12:15:08.055Z,101795.63
2022-09-20T12:17:46.833Z,101801.53
2022-09-20T12:20:34.908Z,101798.72
2022-09-20T12:23:40.304Z,101805.47
2022-09-20T12:26:08.515Z,101804.97
2022-09-20T12:28:39.685Z,101804.47
2022-09-20T12:31:32.146Z,101806.16
2022-09-20T12:34:10.806Z,101796.63
2022-09-20T12:36:40.492Z,101798.53
2022-09-20T12:39:17.602Z,101794.38
2022-09-20T12:41:51.914Z,101803.19
2022-09-20T12:44:35.519Z,101777.28
2022-09-20T12:47:16.114Z,101808.38
2022-09-20T12:50:04.458Z,101803.88
2022-09-20T12:52:55.683Z,101803.53
2022-09-20T12:55:46.080Z,101800.47
2022-09-20T12:58:16.614Z,101799.81
2022-09-20T13:00:47.751Z,101799.50
2022-09-20T13:03:29.720Z,101798.63
2022-09-20T13:06:06.066Z,101803.75
2022-09-20T13:09:10.598Z,101804.19
2022-09-20T13:11:57.051Z,101803.53
2022-09-20T13:14:32.752Z,101796.63
2022-09-20T13:17:37.298Z,101801.34
2022-09-20T13:20:04.757Z,101807.88
2022-09-20T13:22:43.533Z,101811.72
2022-09-20T13:25:15.873Z,101810.03
2022-09-20T13:28:10.458Z,101805.94
2022-09-20T13:30:37.492Z,101801.75
2022-09-20T13:33:24.828Z,101799.97
2022-09-20T13:35:54.724Z,101808.28
2022-09-20T13:38:25.090Z,101821.63
2022-09-20T13:40:54.119Z,101832.97
2022-09-20T13:43:31.424Z,101834.16
2022-09-20T13:46:08.670Z,101836.06
2022-09-20T13:48:36.149Z,101825.84
2022-09-20T13:51:03.386Z,101831.50
2022-09-20T13:53:42.100Z,101843.69
2022-09-20T13:56:19.890Z,101842.69
2022-09-20T13:58:46.703Z,101842.84
2022-09-20T14:01:25.164Z,101841.31
2022-09-20T14:03:53.519Z,101848.06
2022-09-20T14:06:28.283Z,101847.50
2022-09-20T14:08:57.430Z,101862.03
2022-09-20T14:11:28.047Z,101860.88
2022-09-20T14:13:58.087Z,101854.72
2022-09-20T14:16:31.133Z,101860.69
2022-09-20T14:18:59.249Z,101862.94
2022-09-20T14:21:28.551Z,101861.38
2022-09-20T14:24:06.491Z,101859.81
2022-09-20T14:26:38.776Z,101857.31
2022-09-20T14:29:50.568Z,101858.56
2022-09-20T14:32:17.294Z,101873.59
2022-09-20T14:35:00.929Z,101872.97
2022-09-20T14:37:44.850Z,101873.41
2022-09-20T14:40:25.437Z,101861.19
2022-09-20T14:42:56.325Z,101867.13
2022-09-20T14:45:44.511Z,101864.72
2022-09-20T14:48:12.261Z,101870.91
2022-09-20T14:50:44.463Z,101874.44
2022-09-20T14:53:11.044Z,101870.81
2022-09-20T14:56:08.838Z,101862.97
2022-09-20T14:59:01.424Z,101869.44
2022-09-20T15:01:28.472Z,101854.44
2022-09-20T15:03:57.336Z,101850.47
2022-09-20T15:06:25.134Z,101851.84
2022-09-20T15:08:52.385Z,101855.72
2022-09-20T15:11:23.524Z,101854.47
2022-09-20T15:13:50.488Z,101853.13
2022-09-20T15:16:20.216Z,101856.50
2022-09-20T15:18:46.947Z,101848.28
2022-09-20T15:21:13.863Z,101847.53
2022-09-20T15:23:41.370Z,101849.53
2022-09-20T15:26:10.731Z,101835.72
2022-09-20T15:28:37.610Z,101854.41
2022-09-20T15:31:04.706Z,101837.75
2022-09-20T15:33:32.625Z,101841.84
2022-09-20T15:36:02.022Z,101846.41
2022-09-20T15:38:28.873Z,101848.47
2022-09-20T15:40:55.680Z,101842.97
2022-09-20T15:43:26.339Z,101841.97
2022-09-20T15:46:03.167Z,101842.69
2022-09-20T15:48:30.818Z,101833.94
2022-09-20T15:51:05.916Z,101845.66
2022-09-20T15:53:55.451Z,101848.94
2022-09-20T15:56:25.035Z,101850.34
2022-09-20T15:59:00.967Z,101857.84
2022-09-20T16:01:33.122Z,101856.03
2022-09-20T16:04:00.302Z,101862.09
2022-09-20T16:06:27.010Z,101860.94
2022-09-20T16:09:03.781Z,101857.41
2022-09-20T16:11:31.050Z,101867.63
2022-09-20T16:13:59.483Z,101860.88
2022-09-20T16:16:28.249Z,101869.97
2022-09-20T16:19:14.280Z,101869.97
2022-09-20T16:21:42.149Z,101869.47
2022-09-20T16:24:10.861Z,101870.22
2022-09-20T16:26:38.001Z,101870.78
2022-09-20T16:29:06.092Z,101870.66
2022-09-20T16:31:43.738Z,101867.94
2022-09-20T16:34:31.338Z,101872.91
2022-09-20T16:37:01.219Z,101842.38
2022-09-20T16:39:30.473Z,101849.84
2022-09-20T16:42:04.522Z,101885.69
2022-09-20T16:44:33.030Z,101885.00
2022-09-20T16:46:59.890Z,101881.47
2022-09-20T16:49:28.076Z,101882.81
2022-09-20T16:51:55.214Z,101881.63
2022-09-20T16:54:22.156Z,101879.56
2022-09-20T16:56:50.631Z,101887.88
2022-09-20T16:59:24.187Z,101892.75
2022-09-20T17:01:51.539Z,101895.03
2022-09-20T17:04:21.114Z,101892.25
2022-09-20T17:06:49.470Z,101896.25
2022-09-20T17:09:17.124Z,101896.25
2022-09-20T17:11:50.173Z,101896.25
2022-09-20T17:14:19.189Z,101904.28
2022-09-20T17:16:49.497Z,101908.03
2022-09-20T17:19:21.139Z,101911.09
2022-09-20T17:21:50.674Z,101913.41
2022-09-20T17:24:20.169Z,101917.66
2022-09-20T17:26:47.511Z,101916.09
2022-09-20T17:29:17.116Z,101921.75
2022-09-20T17:31:51.533Z,101925.97
2022-09-20T17:34:22.028Z,101929.94
2022-09-20T17:36:50.492Z,101931.06
2022-09-20T17:39:18.515Z,101930.00
2022-09-20T17:41:49.327Z,101944.59
2022-09-20T17:44:16.854Z,101947.56
2022-09-20T17:46:49.983Z,101944.66
2022-09-20T17:49:21.814Z,101948.00
2022-09-20T17:51:53.974Z,101949.06
2022-09-20T17:54:22.045Z,101961.00
2022-09-20T17:56:51.975Z,101954.63
2022-09-20T17:59:20.181Z,101965.63
2022-09-20T18:01:49.760Z,101967.91
2022-09-20T18:04:16.529Z,101964.13
2022-09-20T18:06:49.570Z,101963.03
2022-09-20T18:09:18.691Z,101965.84
2022-09-20T18:11:50.120Z,101966.56
2022-09-20T18:14:23.257Z,101975.28
2022-09-20T18:16:56.038Z,101977.81
2022-09-20T18:19:22.919Z,101979.50
2022-09-20T18:21:50.260Z,101985.53
2022-09-20T18:24:17.179Z,101976.63
2022-09-20T18:26:44.612Z,101986.47
2022-09-20T18:29:18.003Z,101975.19
2022-09-20T18:31:48.764Z,101985.78
2022-09-20T18:34:18.492Z,101989.00
2022-09-20T18:36:55.015Z,101991.81
2022-09-20T18:39:28.831Z,101989.44
2022-09-20T18:41:56.426Z,102002.72
2022-09-20T18:44:23.841Z,101993.69
2022-09-20T18:46:55.048Z,101991.28
2022-09-20T18:49:22.481Z,101996.16
2022-09-20T18:51:49.824Z,102018.03
2022-09-20T18:54:17.419Z,101998.06
2022-09-20T18:56:46.375Z,101998.56
2022-09-20T18:59:18.252Z,102006.25
2022-09-20T19:01:51.049Z,102013.09
2022-09-20T19:04:52.038Z,102022.56
2022-09-20T19:07:28.088Z,102019.59
2022-09-20T19:10:06.813Z,102021.09
2022-09-20T19:12:52.222Z,102028.63
2022-09-20T19:15:58.134Z,102034.44
2022-09-20T19:19:01.672Z,102041.78
2022-09-20T19:21:45.131Z,102035.13
2022-09-20T19:24:33.646Z,102046.84
2022-09-20T19:27:00.693Z,102045.03
2022-09-20T19:29:28.722Z,102053.09
2022-09-20T19:31:59.001Z,102058.66
2022-09-20T19:34:31.161Z,102062.06
2022-09-20T19:37:18.752Z,102054.06
2022-09-20T19:40:16.547Z,102070.63
2022-09-20T19:43:23.678Z,102079.34
2022-09-20T19:45:55.910Z,102077.69
2022-09-20T19:48:48.690Z,102059.88
2022-09-20T19:51:17.192Z,102083.84
2022-09-20T19:53:44.225Z,102079.09
2022-09-20T19:56:25.896Z,102077.41
2022-09-20T19:58:56.463Z,102082.91
2022-09-20T20:01:25.836Z,102074.78
2022-09-20T20:03:53.884Z,102075.75
2022-09-20T20:06:26.082Z,102084.81
2022-09-20T20:08:59.004Z,102086.41
2022-09-20T20:11:50.403Z,102089.28
2022-09-20T20:14:28.827Z,102092.97
2022-09-20T20:17:01.552Z,102088.38
2022-09-20T20:19:47.114Z,102093.56
2022-09-20T20:22:34.672Z,102095.13
2022-09-20T20:25:01.537Z,102095.13
2022-09-20T20:27:28.536Z,102099.47
2022-09-20T20:29:56.652Z,102094.97
2022-09-20T20:32:24.004Z,102103.59
2022-09-20T20:34:50.585Z,102095.25
2022-09-20T20:37:18.208Z,102099.25
2022-09-20T20:39:44.865Z,102099.25
2022-09-20T20:42:12.968Z,102099.47
2022-09-20T20:44:40.174Z,102106.31
2022-09-20T20:47:07.360Z,102105.59
2022-09-20T20:49:34.723Z,102107.84
2022-09-20T20:52:04.876Z,102108.34
2022-09-20T20:54:32.517Z,102109.72
2022-09-20T20:56:59.716Z,102106.84
2022-09-20T20:59:26.828Z,102113.16
2022-09-20T21:01:53.540Z,102110.19
2022-09-20T21:04:21.791Z,102120.94
2022-09-20T21:06:50.245Z,102119.63
2022-09-20T21:09:16.894Z,102127.19
2022-09-20T21:11:44.370Z,102127.31
2022-09-20T21:14:13.055Z,102134.00
2022-09-20T21:16:45.583Z,102136.16
2022-09-20T21:19:15.737Z,102136.91
2022-09-20T21:21:44.515Z,102141.06
2022-09-20T21:24:15.356Z,102139.13
2022-09-20T21:26:42.584Z,102139.38
2022-09-20T21:29:15.257Z,102136.38
2022-09-20T21:31:43.858Z,102140.41
2022-09-20T21:34:12.859Z,102149.09
2022-09-20T21:36:41.631Z,102140.75
2022-09-20T21:39:09.004Z,102154.31
2022-09-20T21:41:37.750Z,102150.09
2022-09-20T21:44:06.095Z,102143.91
2022-09-20T21:46:39.248Z,102148.41
2022-09-20T21:49:10.995Z,102153.72
2022-09-20T21:51:39.329Z,102153.03
2022-09-20T21:54:06.378Z,102158.56
2022-09-20T21:56:38.349Z,102160.75
2022-09-20T21:59:06.398Z,102168.00
2022-09-20T22:01:39.407Z,102166.78
2022-09-20T22:04:09.506Z,102164.38
2022-09-20T22:06:42.136Z,102168.13
2022-09-20T22:09:17.029Z,102159.88
2022-09-20T22:11:46.559Z,102171.72
2022-09-20T22:14:16.262Z,102170.38
2022-09-20T22:16:44.817Z,102167.44
2022-09-20T22:19:14.081Z,102169.63
2022-09-20T22:21:45.895Z,102163.56
2022-09-20T22:24:13.658Z,102169.72
2022-09-20T22:26:48.479Z,102177.09
2022-09-20T22:29:15.759Z,102173.22
2022-09-20T22:31:47.330Z,102177.38
2022-09-20T22:34:25.109Z,102176.63
2022-09-20T22:36:52.505Z,102160.25
2022-09-20T22:39:19.155Z,102174.38
2022-09-20T22:41:48.012Z,102176.78
2022-09-20T22:44:15.067Z,102168.53
2022-09-20T22:46:42.872Z,102172.69
2022-09-20T22:49:09.983Z,102177.63
2022-09-20T22:51:37.589Z,102178.28
2022-09-20T22:54:08.240Z,102172.88
2022-09-20T22:56:44.017Z,102176.75
2022-09-20T22:59:14.361Z,102179.75
2022-09-20T23:01:43.527Z,102184.34
2022-09-20T23:04:28.303Z,102179.38
2022-09-20T23:06:55.220Z,102175.94
2022-09-20T23:09:26.465Z,102179.44
2022-09-20T23:11:53.289Z,102176.41
2022-09-20T23:14:21.769Z,102184.47
2022-09-20T23:16:49.043Z,102185.78
2022-09-20T23:19:16.153Z,102184.53
2022-09-20T23:21:43.848Z,102190.13
2022-09-20T23:24:12.700Z,102184.94
2022-09-20T23:26:41.523Z,102193.75
2022-09-20T23:29:13.564Z,102184.94
2022-09-20T23:31:45.613Z,102176.25
2022-09-20T23:34:13.850Z,102191.09
2022-09-20T23:36:41.072Z,102185.50
2022-09-20T23:39:09.099Z,102191.03
2022-09-20T23:41:36.957Z,102188.59
2022-09-20T23:44:06.227Z,102192.19
2022-09-20T23:46:33.476Z,102190.28
2022-09-20T23:49:00.283Z,102195.59
2022-09-20T23:51:28.503Z,102188.16
2022-09-20T23:53:55.163Z,102183.16
2022-09-20T23:56:22.619Z,102191.25
2022-09-20T23:58:50.268Z,102182.75
